sensor_id;sensor_type;location;lat;lon;timestamp;pressure;altitude;pressure_sealevel;temperature;humidity
20027;BME280;10174;42.688;23.344;2023-01-29T00:02:12;95481.28;;;-0.49;87.90
20027;BME280;10174;42.688;23.344;2023-01-29T00:04:38;95355.56;;;-1.29;87.10
20027;BME280;10174;42.688;23.344;2023-01-29T00:07:03;95464.47;;;-0.70;87.99
20027;BME280;10174;42.688;23.344;2023-01-29T00:09:29;95473.13;;;-0.55;87.61
20027;BME280;10174;42.688;23.344;2023-01-29T00:11:56;95372.25;;;-1.21;87.35
20027;BME280;10174;42.688;23.344;2023-01-29T00:14:21;95413.03;;;-0.81;87.38
20027;BME280;10174;42.688;23.344;2023-01-29T00:16:47;95479.84;;;-0.52;87.71
20027;BME280;10174;42.688;23.344;2023-01-29T00:19:12;95478.81;;;-0.58;87.83
20027;BME280;10174;42.688;23.344;2023-01-29T00:21:37;95469.47;;;-0.54;87.71
20027;BME280;10174;42.688;23.344;2023-01-29T00:24:03;95484.59;;;-0.47;87.75
20027;BME280;10174;42.688;23.344;2023-01-29T00:26:28;95501.59;;;-0.50;88.11
20027;BME280;10174;42.688;23.344;2023-01-29T00:28:54;95501.16;;;-0.54;88.02
20027;BME280;10174;42.688;23.344;2023-01-29T00:31:23;95511.78;;;-0.47;87.98
20027;BME280;10174;42.688;23.344;2023-01-29T00:33:49;95497.38;;;-0.66;88.58
20027;BME280;10174;42.688;23.344;2023-01-29T00:36:16;95500.97;;;-0.52;88.53
20027;BME280;10174;42.688;23.344;2023-01-29T00:38:42;95494.38;;;-0.41;88.12
20027;BME280;10174;42.688;23.344;2023-01-29T00:41:13;95492.19;;;-0.59;87.90
20027;BME280;10174;42.688;23.344;2023-01-29T00:43:58;95461.19;;;-0.72;88.72
20027;BME280;10174;42.688;23.344;2023-01-29T00:46:42;95472.97;;;-0.75;88.54
20027;BME280;10174;42.688;23.344;2023-01-29T00:49:08;95474.66;;;-0.67;88.27
20027;BME280;10174;42.688;23.344;2023-01-29T00:51:34;95495.50;;;-0.50;88.17
20027;BME280;10174;42.688;23.344;2023-01-29T00:54:00;95504.50;;;-0.45;88.13
20027;BME280;10174;42.688;23.344;2023-01-29T00:56:27;95490.78;;;-0.33;88.27
20027;BME280;10174;42.688;23.344;2023-01-29T00:58:53;95500.13;;;-0.31;88.40
20027;BME280;10174;42.688;23.344;2023-01-29T01:01:19;95494.84;;;-0.31;88.50
20027;BME280;10174;42.688;23.344;2023-01-29T01:04:05;95477.66;;;-0.48;88.56
20027;BME280;10174;42.688;23.344;2023-01-29T01:06:30;95427.66;;;-1.00;89.22
20027;BME280;10174;42.688;23.344;2023-01-29T01:08:56;95485.97;;;-0.73;89.46
20027;BME280;10174;42.688;23.344;2023-01-29T01:11:39;95490.78;;;-0.77;90.56
20027;BME280;10174;42.688;23.344;2023-01-29T01:14:05;95494.13;;;-0.68;90.36
20027;BME280;10174;42.688;23.344;2023-01-29T01:16:30;95492.44;;;-0.54;89.98
20027;BME280;10174;42.688;23.344;2023-01-29T01:18:55;95469.63;;;-0.83;89.94
20027;BME280;10174;42.688;23.344;2023-01-29T01:21:21;95483.56;;;-0.68;90.01
20027;BME280;10174;42.688;23.344;2023-01-29T01:23:46;95393.34;;;-1.21;88.82
20027;BME280;10174;42.688;23.344;2023-01-29T01:26:12;95414.81;;;-1.24;89.52
20027;BME280;10174;42.688;23.344;2023-01-29T01:28:37;95370.94;;;-1.69;89.55
20027;BME280;10174;42.688;23.344;2023-01-29T01:31:10;95493.50;;;-0.92;90.84
20027;BME280;10174;42.688;23.344;2023-01-29T01:33:36;95465.38;;;-0.99;90.65
20027;BME280;10174;42.688;23.344;2023-01-29T01:36:02;95486.34;;;-0.76;90.38
20027;BME280;10174;42.688;23.344;2023-01-29T01:38:28;95490.78;;;-0.77;90.46
20027;BME280;10174;42.688;23.344;2023-01-29T01:40:53;95488.72;;;-0.60;90.17
20027;BME280;10174;42.688;23.344;2023-01-29T01:43:18;95478.91;;;-0.87;89.90
20027;BME280;10174;42.688;23.344;2023-01-29T01:45:44;95417.09;;;-1.21;90.44
20027;BME280;10174;42.688;23.344;2023-01-29T01:48:12;95492.75;;;-0.85;90.56
20027;BME280;10174;42.688;23.344;2023-01-29T01:50:44;95505.63;;;-0.76;90.92
20027;BME280;10174;42.688;23.344;2023-01-29T01:53:18;95477.00;;;-0.94;90.71
20027;BME280;10174;42.688;23.344;2023-01-29T01:55:49;95502.78;;;-0.74;90.79
20027;BME280;10174;42.688;23.344;2023-01-29T01:58:30;95391.81;;;-1.52;91.24
20027;BME280;10174;42.688;23.344;2023-01-29T02:00:57;95469.22;;;-1.02;91.38
20027;BME280;10174;42.688;23.344;2023-01-29T02:03:23;95416.31;;;-1.37;91.34
20027;BME280;10174;42.688;23.344;2023-01-29T02:06:10;95491.03;;;-0.93;92.04
20027;BME280;10174;42.688;23.344;2023-01-29T02:08:59;95486.94;;;-0.96;92.57
20027;BME280;10174;42.688;23.344;2023-01-29T02:11:44;95506.56;;;-0.83;92.29
20027;BME280;10174;42.688;23.344;2023-01-29T02:14:10;95481.28;;;-0.93;92.43
20027;BME280;10174;42.688;23.344;2023-01-29T02:16:36;95480.50;;;-0.93;92.25
20027;BME280;10174;42.688;23.344;2023-01-29T02:19:04;95500.47;;;-0.84;92.58
20027;BME280;10174;42.688;23.344;2023-01-29T02:21:47;95510.56;;;-0.66;92.16
20027;BME280;10174;42.688;23.344;2023-01-29T02:27:20;95501.41;;;-0.70;92.03
20027;BME280;10174;42.688;23.344;2023-01-29T02:32:51;95512.34;;;-0.73;92.31
20027;BME280;10174;42.688;23.344;2023-01-29T02:35:34;95482.47;;;-0.95;92.39
20027;BME280;10174;42.688;23.344;2023-01-29T02:43:12;95517.84;;;-0.90;93.39
20027;BME280;10174;42.688;23.344;2023-01-29T02:46:17;95523.13;;;-0.90;93.78
20027;BME280;10174;42.688;23.344;2023-01-29T02:54:38;95526.75;;;-0.91;93.21
20027;BME280;10174;42.688;23.344;2023-01-29T02:57:22;95522.22;;;-0.97;93.45
20027;BME280;10174;42.688;23.344;2023-01-29T03:02:42;95530.84;;;-0.88;94.71
20027;BME280;10174;42.688;23.344;2023-01-29T03:05:14;95416.72;;;-1.55;94.36
20027;BME280;10174;42.688;23.344;2023-01-29T03:07:49;95529.59;;;-0.92;94.37
20027;BME280;10174;42.688;23.344;2023-01-29T03:12:43;95523.13;;;-0.90;94.38
20027;BME280;10174;42.688;23.344;2023-01-29T03:15:16;95530.44;;;-0.92;94.42
20027;BME280;10174;42.688;23.344;2023-01-29T03:17:50;95511.06;;;-0.99;94.77
20027;BME280;10174;42.688;23.344;2023-01-29T03:20:21;95516.22;;;-0.91;94.60
20027;BME280;10174;42.688;23.344;2023-01-29T03:22:54;95524.66;;;-0.80;94.61
20027;BME280;10174;42.688;23.344;2023-01-29T03:25:23;95548.03;;;-0.77;94.36
20027;BME280;10174;42.688;23.344;2023-01-29T03:28:11;95525.22;;;-0.85;94.41
20027;BME280;10174;42.688;23.344;2023-01-29T03:31:02;95535.81;;;-0.78;93.52
20027;BME280;10174;42.688;23.344;2023-01-29T03:34:07;95531.94;;;-0.82;93.14
20027;BME280;10174;42.688;23.344;2023-01-29T03:36:36;95440.59;;;-1.41;93.90
20027;BME280;10174;42.688;23.344;2023-01-29T03:39:11;95541.38;;;-0.73;93.44
20027;BME280;10174;42.688;23.344;2023-01-29T03:41:47;95541.00;;;-0.70;93.27
20027;BME280;10174;42.688;23.344;2023-01-29T03:46:49;95534.09;;;-0.71;93.55
20027;BME280;10174;42.688;23.344;2023-01-29T03:52:08;95493.50;;;-0.92;93.52
20027;BME280;10174;42.688;23.344;2023-01-29T04:00:18;95510.41;;;-1.01;94.56
20027;BME280;10174;42.688;23.344;2023-01-29T04:05:24;95536.31;;;-0.90;94.19
20027;BME280;10174;42.688;23.344;2023-01-29T04:07:57;95427.91;;;-1.68;94.97
20027;BME280;10174;42.688;23.344;2023-01-29T04:10:26;95515.56;;;-1.14;95.21
20027;BME280;10174;42.688;23.344;2023-01-29T04:12:58;95425.28;;;-1.68;95.25
20027;BME280;10174;42.688;23.344;2023-01-29T04:15:28;95530.16;;;-1.12;95.90
20027;BME280;10174;42.688;23.344;2023-01-29T04:17:55;95515.56;;;-1.14;96.65
20027;BME280;10174;42.688;23.344;2023-01-29T04:20:21;95454.03;;;-1.51;95.14
20027;BME280;10174;42.688;23.344;2023-01-29T04:22:49;95545.22;;;-0.91;95.71
20027;BME280;10174;42.688;23.344;2023-01-29T04:25:18;95518.56;;;-1.17;94.57
20027;BME280;10174;42.688;23.344;2023-01-29T04:30:38;95550.44;;;-0.97;95.39
20027;BME280;10174;42.688;23.344;2023-01-29T04:33:33;95545.53;;;-1.00;94.56
20027;BME280;10174;42.688;23.344;2023-01-29T04:44:22;95551.91;;;-0.95;93.59
20027;BME280;10174;42.688;23.344;2023-01-29T04:49:55;95524.81;;;-1.18;93.85
20027;BME280;10174;42.688;23.344;2023-01-29T04:52:37;95551.63;;;-1.00;94.11
20027;BME280;10174;42.688;23.344;2023-01-29T04:55:24;95549.97;;;-1.01;93.48
20027;BME280;10174;42.688;23.344;2023-01-29T04:58:28;95537.16;;;-1.04;93.30
20027;BME280;10174;42.688;23.344;2023-01-29T05:00:56;95526.09;;;-1.14;93.63
20027;BME280;10174;42.688;23.344;2023-01-29T05:03:24;95563.06;;;-0.93;93.09
20027;BME280;10174;42.688;23.344;2023-01-29T05:05:53;95555.59;;;-0.89;93.33
20027;BME280;10174;42.688;23.344;2023-01-29T05:08:22;95558.59;;;-0.92;93.13
20027;BME280;10174;42.688;23.344;2023-01-29T05:10:49;95544.31;;;-0.98;93.40
20027;BME280;10174;42.688;23.344;2023-01-29T05:13:17;95543.69;;;-1.00;93.75
20027;BME280;10174;42.688;23.344;2023-01-29T05:15:46;95561.63;;;-0.95;93.33
20027;BME280;10174;42.688;23.344;2023-01-29T05:18:13;95562.78;;;-0.98;94.03
20027;BME280;10174;42.688;23.344;2023-01-29T05:20:40;95578.63;;;-0.98;93.85
20027;BME280;10174;42.688;23.344;2023-01-29T05:23:09;95566.16;;;-1.04;93.80
20027;BME280;10174;42.688;23.344;2023-01-29T05:25:35;95550.81;;;-1.15;94.71
20027;BME280;10174;42.688;23.344;2023-01-29T05:28:00;95574.00;;;-0.96;94.45
20027;BME280;10174;42.688;23.344;2023-01-29T05:30:31;95582.25;;;-0.84;94.35
20027;BME280;10174;42.688;23.344;2023-01-29T05:32:56;95574.59;;;-0.79;93.57
20027;BME280;10174;42.688;23.344;2023-01-29T05:35:22;95574.63;;;-0.94;93.40
20027;BME280;10174;42.688;23.344;2023-01-29T05:37:47;95571.34;;;-0.96;93.10
20027;BME280;10174;42.688;23.344;2023-01-29T05:40:12;95578.41;;;-0.81;93.06
20027;BME280;10174;42.688;23.344;2023-01-29T05:42:38;95587.38;;;-0.97;92.54
20027;BME280;10174;42.688;23.344;2023-01-29T05:45:04;95555.97;;;-1.07;92.73
20027;BME280;10174;42.688;23.344;2023-01-29T05:47:29;95582.81;;;-0.88;93.17
20027;BME280;10174;42.688;23.344;2023-01-29T05:49:55;95590.97;;;-0.83;93.54
20027;BME280;10174;42.688;23.344;2023-01-29T05:52:20;95587.34;;;-0.82;93.44
20027;BME280;10174;42.688;23.344;2023-01-29T05:54:45;95596.44;;;-0.70;93.94
20027;BME280;10174;42.688;23.344;2023-01-29T05:57:11;95590.25;;;-0.77;93.68
20027;BME280;10174;42.688;23.344;2023-01-29T05:59:36;95492.94;;;-1.38;93.70
20027;BME280;10174;42.688;23.344;2023-01-29T06:02:01;95585.72;;;-0.83;93.78
20027;BME280;10174;42.688;23.344;2023-01-29T06:04:27;95570.69;;;-0.98;94.13
20027;BME280;10174;42.688;23.344;2023-01-29T06:06:52;95606.44;;;-0.80;93.87
20027;BME280;10174;42.688;23.344;2023-01-29T06:09:18;95609.44;;;-0.83;93.85
20027;BME280;10174;42.688;23.344;2023-01-29T06:11:43;95584.00;;;-0.91;94.08
20027;BME280;10174;42.688;23.344;2023-01-29T06:14:08;95590.91;;;-0.90;93.99
20027;BME280;10174;42.688;23.344;2023-01-29T06:16:34;95622.28;;;-0.80;94.11
20027;BME280;10174;42.688;23.344;2023-01-29T06:18:59;95619.63;;;-0.80;94.30
20027;BME280;10174;42.688;23.344;2023-01-29T06:21:24;95619.75;;;-0.88;94.40
20027;BME280;10174;42.688;23.344;2023-01-29T06:23:53;95624.75;;;-0.94;94.61
20027;BME280;10174;42.688;23.344;2023-01-29T06:26:18;95621.47;;;-0.96;95.04
20027;BME280;10174;42.688;23.344;2023-01-29T06:28:47;95634.56;;;-0.87;95.22
20027;BME280;10174;42.688;23.344;2023-01-29T06:31:13;95631.72;;;-0.86;95.42
20027;BME280;10174;42.688;23.344;2023-01-29T06:33:38;95613.19;;;-0.93;94.95
20027;BME280;10174;42.688;23.344;2023-01-29T06:36:04;95613.25;;;-0.86;94.76
20027;BME280;10174;42.688;23.344;2023-01-29T06:38:29;95630.63;;;-0.77;94.93
20027;BME280;10174;42.688;23.344;2023-01-29T06:40:56;95600.25;;;-0.87;95.15
20027;BME280;10174;42.688;23.344;2023-01-29T06:43:22;95625.34;;;-0.77;94.86
20027;BME280;10174;42.688;23.344;2023-01-29T06:45:55;95598.72;;;-0.97;94.23
20027;BME280;10174;42.688;23.344;2023-01-29T06:48:22;95648.19;;;-0.69;94.84
20027;BME280;10174;42.688;23.344;2023-01-29T06:50:48;95653.00;;;-0.58;94.53
20027;BME280;10174;42.688;23.344;2023-01-29T06:53:14;95638.16;;;-0.59;94.15
20027;BME280;10174;42.688;23.344;2023-01-29T06:55:40;95654.13;;;-0.67;94.13
20027;BME280;10174;42.688;23.344;2023-01-29T06:58:10;95654.91;;;-0.66;94.00
20027;BME280;10174;42.688;23.344;2023-01-29T07:00:36;95662.09;;;-0.60;94.49
20027;BME280;10174;42.688;23.344;2023-01-29T07:03:03;95623.19;;;-0.73;94.74
20027;BME280;10174;42.688;23.344;2023-01-29T07:05:28;95648.16;;;-0.54;94.65
20027;BME280;10174;42.688;23.344;2023-01-29T07:07:54;95659.66;;;-0.62;94.17
20027;BME280;10174;42.688;23.344;2023-01-29T07:10:19;95633.63;;;-0.80;94.47
20027;BME280;10174;42.688;23.344;2023-01-29T07:12:45;95557.38;;;-1.11;94.34
20027;BME280;10174;42.688;23.344;2023-01-29T07:15:11;95664.19;;;-0.56;94.19
20027;BME280;10174;42.688;23.344;2023-01-29T07:17:37;95673.94;;;-0.56;93.55
20027;BME280;10174;42.688;23.344;2023-01-29T07:20:03;95591.13;;;-1.21;93.57
20027;BME280;10174;42.688;23.344;2023-01-29T07:22:30;95641.59;;;-0.95;94.21
20027;BME280;10174;42.688;23.344;2023-01-29T07:24:56;95666.28;;;-0.66;94.06
20027;BME280;10174;42.688;23.344;2023-01-29T07:27:21;95668.31;;;-0.68;93.83
20027;BME280;10174;42.688;23.344;2023-01-29T07:29:47;95687.13;;;-0.56;93.89
20027;BME280;10174;42.688;23.344;2023-01-29T07:32:12;95659.53;;;-0.54;93.34
20027;BME280;10174;42.688;23.344;2023-01-29T07:34:38;95651.72;;;-0.62;92.44
20027;BME280;10174;42.688;23.344;2023-01-29T07:37:03;95661.53;;;-0.56;92.96
20027;BME280;10174;42.688;23.344;2023-01-29T07:39:30;95685.56;;;-0.50;92.57
20027;BME280;10174;42.688;23.344;2023-01-29T07:41:56;95665.53;;;-0.45;92.52
20027;BME280;10174;42.688;23.344;2023-01-29T07:44:21;95571.59;;;-0.91;92.46
20027;BME280;10174;42.688;23.344;2023-01-29T07:46:46;95679.31;;;-0.28;92.03
20027;BME280;10174;42.688;23.344;2023-01-29T07:49:12;95683.06;;;-0.22;92.21
20027;BME280;10174;42.688;23.344;2023-01-29T07:51:37;95669.50;;;-0.34;92.26
20027;BME280;10174;42.688;23.344;2023-01-29T07:54:03;95678.50;;;-0.28;92.02
20027;BME280;10174;42.688;23.344;2023-01-29T07:56:29;95694.66;;;-0.38;92.46
20027;BME280;10174;42.688;23.344;2023-01-29T07:58:55;95673.00;;;-0.48;93.68
20027;BME280;10174;42.688;23.344;2023-01-29T08:01:20;95680.66;;;-0.54;93.04
20027;BME280;10174;42.688;23.344;2023-01-29T08:03:46;95699.78;;;-0.51;93.88
20027;BME280;10174;42.688;23.344;2023-01-29T08:06:11;95698.88;;;-0.59;94.92
20027;BME280;10174;42.688;23.344;2023-01-29T08:08:36;95609.75;;;-1.08;95.22
20027;BME280;10174;42.688;23.344;2023-01-29T08:11:03;95692.66;;;-0.51;95.25
20027;BME280;10174;42.688;23.344;2023-01-29T08:13:30;95711.06;;;-0.58;94.31
20027;BME280;10174;42.688;23.344;2023-01-29T08:16:00;95706.97;;;-0.45;94.55
20027;BME280;10174;42.688;23.344;2023-01-29T08:18:25;95706.34;;;-0.47;93.53
20027;BME280;10174;42.688;23.344;2023-01-29T08:20:51;95702.41;;;-0.37;93.80
20027;BME280;10174;42.688;23.344;2023-01-29T08:23:16;95710.13;;;-0.35;92.71
20027;BME280;10174;42.688;23.344;2023-01-29T08:25:42;95703.75;;;-0.26;92.63
20027;BME280;10174;42.688;23.344;2023-01-29T08:28:07;95686.94;;;-0.40;91.57
20027;BME280;10174;42.688;23.344;2023-01-29T08:30:34;95696.66;;;-0.40;90.95
20027;BME280;10174;42.688;23.344;2023-01-29T08:33:00;95715.31;;;-0.42;90.49
20027;BME280;10174;42.688;23.344;2023-01-29T08:35:25;95705.97;;;-0.44;91.42
20027;BME280;10174;42.688;23.344;2023-01-29T08:37:56;95722.44;;;-0.42;90.38
20027;BME280;10174;42.688;23.344;2023-01-29T08:40:23;95715.41;;;-0.35;91.09
20027;BME280;10174;42.688;23.344;2023-01-29T08:42:49;95715.41;;;-0.35;90.46
20027;BME280;10174;42.688;23.344;2023-01-29T08:45:14;95725.16;;;-0.36;89.57
20027;BME280;10174;42.688;23.344;2023-01-29T08:47:47;95730.16;;;-0.26;90.31
20027;BME280;10174;42.688;23.344;2023-01-29T08:50:14;95708.69;;;-0.38;90.87
20027;BME280;10174;42.688;23.344;2023-01-29T08:52:40;95693.47;;;-0.50;89.88
20027;BME280;10174;42.688;23.344;2023-01-29T08:55:05;95715.78;;;-0.38;89.98
20027;BME280;10174;42.688;23.344;2023-01-29T08:57:31;95718.06;;;-0.50;89.85
20027;BME280;10174;42.688;23.344;2023-01-29T08:59:56;95745.09;;;-0.33;89.92
20027;BME280;10174;42.688;23.344;2023-01-29T09:02:22;95742.19;;;-0.38;89.67
20027;BME280;10174;42.688;23.344;2023-01-29T09:04:47;95745.28;;;-0.34;89.78
20027;BME280;10174;42.688;23.344;2023-01-29T09:07:12;95740.34;;;-0.23;89.21
20027;BME280;10174;42.688;23.344;2023-01-29T09:09:38;95738.69;;;-0.24;89.05
20027;BME280;10174;42.688;23.344;2023-01-29T09:12:03;95729.88;;;-0.31;89.30
20027;BME280;10174;42.688;23.344;2023-01-29T09:14:29;95739.25;;;-0.13;89.89
20027;BME280;10174;42.688;23.344;2023-01-29T09:16:54;95706.56;;;-0.27;89.04
20027;BME280;10174;42.688;23.344;2023-01-29T09:19:19;95667.56;;;-0.62;88.09
20027;BME280;10174;42.688;23.344;2023-01-29T09:21:45;95728.72;;;-0.43;87.86
20027;BME280;10174;42.688;23.344;2023-01-29T09:24:10;95734.59;;;-0.26;88.43
20027;BME280;10174;42.688;23.344;2023-01-29T09:26:36;95717.88;;;-0.33;88.60
20027;BME280;10174;42.688;23.344;2023-01-29T09:29:01;95728.88;;;-0.30;89.24
20027;BME280;10174;42.688;23.344;2023-01-29T09:31:26;95733.31;;;-0.15;88.34
20027;BME280;10174;42.688;23.344;2023-01-29T09:33:52;95691.91;;;-0.30;88.41
20027;BME280;10174;42.688;23.344;2023-01-29T09:36:17;95592.28;;;-0.94;87.80
20027;BME280;10174;42.688;23.344;2023-01-29T09:38:42;95709.84;;;-0.25;88.78
20027;BME280;10174;42.688;23.344;2023-01-29T09:43:48;95718.19;;;-0.22;88.18
20027;BME280;10174;42.688;23.344;2023-01-29T09:48:45;95654.63;;;-0.57;87.61
20027;BME280;10174;42.688;23.344;2023-01-29T09:51:24;95707.50;;;-0.35;88.33
20027;BME280;10174;42.688;23.344;2023-01-29T09:54:05;95732.63;;;-0.24;88.47
20027;BME280;10174;42.688;23.344;2023-01-29T09:56:36;95724.41;;;-0.29;88.05
20027;BME280;10174;42.688;23.344;2023-01-29T09:59:01;95621.72;;;-0.91;88.49
20027;BME280;10174;42.688;23.344;2023-01-29T10:01:52;95727.75;;;-0.21;89.04
20027;BME280;10174;42.688;23.344;2023-01-29T10:17:25;95706.94;;;0.06;87.66
20027;BME280;10174;42.688;23.344;2023-01-29T10:25:02;95699.13;;;-0.02;87.53
20027;BME280;10174;42.688;23.344;2023-01-29T10:27:38;95705.28;;;0.05;88.00
20027;BME280;10174;42.688;23.344;2023-01-29T10:30:07;95670.03;;;-0.24;88.31
20027;BME280;10174;42.688;23.344;2023-01-29T10:32:36;95676.28;;;-0.10;88.37
20027;BME280;10174;42.688;23.344;2023-01-29T10:35:19;95646.31;;;-0.39;89.16
20027;BME280;10174;42.688;23.344;2023-01-29T10:37:46;95668.53;;;-0.11;88.72
20027;BME280;10174;42.688;23.344;2023-01-29T10:40:21;95682.31;;;0.27;88.65
20027;BME280;10174;42.688;23.344;2023-01-29T10:58:58;95673.06;;;-0.27;89.04
20027;BME280;10174;42.688;23.344;2023-01-29T11:01:25;95640.38;;;-0.26;89.83
20027;BME280;10174;42.688;23.344;2023-01-29T11:03:56;95666.53;;;-0.09;88.64
20027;BME280;10174;42.688;23.344;2023-01-29T11:06:35;95586.97;;;-0.43;88.17
20027;BME280;10174;42.688;23.344;2023-01-29T11:17:14;95671.69;;;0.21;87.60
20027;BME280;10174;42.688;23.344;2023-01-29T11:19:42;95567.03;;;-0.24;87.05
20027;BME280;10174;42.688;23.344;2023-01-29T11:22:27;95659.47;;;0.41;86.94
20027;BME280;10174;42.688;23.344;2023-01-29T11:27:51;95656.34;;;0.31;86.43
20027;BME280;10174;42.688;23.344;2023-01-29T11:30:26;95659.94;;;0.23;87.74
20027;BME280;10174;42.688;23.344;2023-01-29T11:33:21;95650.69;;;0.34;87.20
20027;BME280;10174;42.688;23.344;2023-01-29T11:35:50;95538.25;;;-0.40;86.38
20027;BME280;10174;42.688;23.344;2023-01-29T11:38:27;95638.91;;;0.15;87.01
20027;BME280;10174;42.688;23.344;2023-01-29T11:41:13;95624.28;;;0.12;86.96
20027;BME280;10174;42.688;23.344;2023-01-29T11:43:40;95629.75;;;0.11;87.09
20027;BME280;10174;42.688;23.344;2023-01-29T11:46:13;95616.31;;;0.34;87.44
20027;BME280;10174;42.688;23.344;2023-01-29T11:48:43;95626.75;;;0.42;85.95
20027;BME280;10174;42.688;23.344;2023-01-29T11:51:11;95640.69;;;0.58;86.08
20027;BME280;10174;42.688;23.344;2023-01-29T11:53:48;95603.94;;;0.41;85.79
20027;BME280;10174;42.688;23.344;2023-01-29T11:58:44;95625.31;;;0.68;84.86
20027;BME280;10174;42.688;23.344;2023-01-29T12:01:10;95606.94;;;0.60;84.91
20027;BME280;10174;42.688;23.344;2023-01-29T12:03:43;95618.38;;;0.67;84.73
20027;BME280;10174;42.688;23.344;2023-01-29T12:06:22;95624.53;;;0.46;84.37
20027;BME280;10174;42.688;23.344;2023-01-29T12:08:54;95618.94;;;0.62;85.12
20027;BME280;10174;42.688;23.344;2023-01-29T12:11:31;95628.53;;;0.63;84.51
20027;BME280;10174;42.688;23.344;2023-01-29T12:14:00;95605.72;;;0.62;84.36
20027;BME280;10174;42.688;23.344;2023-01-29T12:19:26;95603.19;;;0.47;85.01
20027;BME280;10174;42.688;23.344;2023-01-29T12:22:00;95524.63;;;-0.15;84.03
20027;BME280;10174;42.688;23.344;2023-01-29T12:24:43;95622.81;;;0.60;85.11
20027;BME280;10174;42.688;23.344;2023-01-29T12:30:16;95622.19;;;0.93;83.52
20027;BME280;10174;42.688;23.344;2023-01-29T12:35:27;95621.97;;;0.87;83.33
20027;BME280;10174;42.688;23.344;2023-01-29T12:38:02;95621.22;;;1.00;83.08
20027;BME280;10174;42.688;23.344;2023-01-29T12:40:38;95550.56;;;0.94;81.91
20027;BME280;10174;42.688;23.344;2023-01-29T12:45:51;95621.50;;;1.12;82.04
20027;BME280;10174;42.688;23.344;2023-01-29T12:48:23;95623.56;;;1.23;81.06
20027;BME280;10174;42.688;23.344;2023-01-29T12:50:51;95610.75;;;0.85;81.28
20027;BME280;10174;42.688;23.344;2023-01-29T12:56:43;95608.88;;;0.79;81.36
20027;BME280;10174;42.688;23.344;2023-01-29T12:58:51;95630.19;;;0.71;82.92
20027;BME280;10174;42.688;23.344;2023-01-29T13:01:32;95613.00;;;0.53;83.69
20027;BME280;10174;42.688;23.344;2023-01-29T13:06:48;95543.88;;;0.28;83.10
20027;BME280;10174;42.688;23.344;2023-01-29T13:09:19;95617.19;;;0.76;83.11
20027;BME280;10174;42.688;23.344;2023-01-29T13:12:07;95625.31;;;0.68;82.96
20027;BME280;10174;42.688;23.344;2023-01-29T13:14:53;95596.13;;;0.55;83.17
20027;BME280;10174;42.688;23.344;2023-01-29T13:20:00;95621.72;;;0.82;82.06
20027;BME280;10174;42.688;23.344;2023-01-29T13:22:32;95528.69;;;0.37;82.04
20027;BME280;10174;42.688;23.344;2023-01-29T13:24:59;95624.16;;;0.84;82.36
20027;BME280;10174;42.688;23.344;2023-01-29T13:27:29;95611.53;;;0.79;82.38
20027;BME280;10174;42.688;23.344;2023-01-29T13:29:56;95622.94;;;0.80;82.59
20027;BME280;10174;42.688;23.344;2023-01-29T13:32:24;95614.72;;;0.68;82.35
20027;BME280;10174;42.688;23.344;2023-01-29T13:34:51;95613.34;;;0.72;81.82
20027;BME280;10174;42.688;23.344;2023-01-29T13:39:54;95630.19;;;0.71;81.64
20027;BME280;10174;42.688;23.344;2023-01-29T13:42:22;95640.75;;;0.64;82.01
20027;BME280;10174;42.688;23.344;2023-01-29T13:44:49;95643.00;;;0.67;82.22
20027;BME280;10174;42.688;23.344;2023-01-29T13:47:33;95648.56;;;0.51;82.09
20027;BME280;10174;42.688;23.344;2023-01-29T13:50:05;95652.69;;;0.53;82.12
20027;BME280;10174;42.688;23.344;2023-01-29T13:52:35;95649.56;;;0.50;81.95
20027;BME280;10174;42.688;23.344;2023-01-29T13:55:06;95619.34;;;0.31;82.23
20027;BME280;10174;42.688;23.344;2023-01-29T14:00:02;95646.00;;;0.36;82.77
20027;BME280;10174;42.688;23.344;2023-01-29T14:02:28;95597.97;;;0.04;82.12
20027;BME280;10174;42.688;23.344;2023-01-29T14:08:01;95664.56;;;0.64;82.35
20027;BME280;10174;42.688;23.344;2023-01-29T14:10:29;95664.09;;;0.61;81.41
20027;BME280;10174;42.688;23.344;2023-01-29T14:15:36;95665.13;;;0.60;80.97
20027;BME280;10174;42.688;23.344;2023-01-29T14:20:40;95667.00;;;0.44;80.80
20027;BME280;10174;42.688;23.344;2023-01-29T14:23:41;95665.06;;;0.53;80.34
20027;BME280;10174;42.688;23.344;2023-01-29T14:28:55;95663.44;;;0.30;81.56
20027;BME280;10174;42.688;23.344;2023-01-29T14:31:57;95657.88;;;0.19;81.22
20027;BME280;10174;42.688;23.344;2023-01-29T14:34:41;95657.88;;;0.19;82.26
20027;BME280;10174;42.688;23.344;2023-01-29T14:39:54;95682.50;;;0.26;82.13
20027;BME280;10174;42.688;23.344;2023-01-29T14:42:28;95675.72;;;0.16;83.03
20027;BME280;10174;42.688;23.344;2023-01-29T14:45:05;95648.44;;;0.09;83.89
20027;BME280;10174;42.688;23.344;2023-01-29T14:49:59;95627.16;;;-0.04;83.36
20027;BME280;10174;42.688;23.344;2023-01-29T14:52:41;95680.13;;;0.31;83.47
20027;BME280;10174;42.688;23.344;2023-01-29T14:55:18;95661.88;;;0.14;84.61
20027;BME280;10174;42.688;23.344;2023-01-29T14:57:50;95654.47;;;0.03;84.37
20027;BME280;10174;42.688;23.344;2023-01-29T15:00:25;95679.38;;;0.15;84.02
20027;BME280;10174;42.688;23.344;2023-01-29T15:02:52;95682.09;;;0.01;85.20
20027;BME280;10174;42.688;23.344;2023-01-29T15:05:20;95679.63;;;-0.01;85.48
20027;BME280;10174;42.688;23.344;2023-01-29T15:10:22;95679.38;;;0.15;84.79
20027;BME280;10174;42.688;23.344;2023-01-29T15:13:02;95676.56;;;0.17;85.02
20027;BME280;10174;42.688;23.344;2023-01-29T15:18:32;95682.78;;;0.31;84.63
20027;BME280;10174;42.688;23.344;2023-01-29T15:21:01;95676.94;;;0.14;85.38
20027;BME280;10174;42.688;23.344;2023-01-29T15:23:28;95680.63;;;0.20;85.66
20027;BME280;10174;42.688;23.344;2023-01-29T15:26:01;95556.97;;;-0.57;86.10
20027;BME280;10174;42.688;23.344;2023-01-29T15:28:28;95695.34;;;0.29;85.22
20027;BME280;10174;42.688;23.344;2023-01-29T15:30:56;95703.22;;;0.22;84.63
20027;BME280;10174;42.688;23.344;2023-01-29T15:33:24;95686.84;;;0.12;85.31
20027;BME280;10174;42.688;23.344;2023-01-29T15:36:01;95694.72;;;0.05;85.39
20027;BME280;10174;42.688;23.344;2023-01-29T15:38:27;95594.56;;;-0.55;85.60